createdAt,value
2023-01-09T00:01:34.133Z,99508.60
2023-01-09T00:06:58.839Z,99500.25
2023-01-09T00:12:33.450Z,99499.92
2023-01-09T00:18:28.514Z,99507.57
2023-01-09T00:24:04.956Z,99512.10
2023-01-09T00:29:23.594Z,99526.00
2023-01-09T00:34:57.028Z,99524.64
2023-01-09T00:40:20.405Z,99516.31
2023-01-09T00:45:58.477Z,99501.36
2023-01-09T00:51:44.000Z,99515.15
2023-01-09T00:57:40.916Z,99508.33
2023-01-09T01:02:50.564Z,99496.61
2023-01-09T01:08:05.445Z,99488.29
2023-01-09T01:14:02.320Z,99464.37
2023-01-09T01:19:33.866Z,99454.63
2023-01-09T01:24:50.846Z,99449.84
2023-01-09T01:30:17.681Z,99443.58
2023-01-09T01:35:24.311Z,99441.52
2023-01-09T01:40:38.447Z,99442.48
2023-01-09T01:45:41.987Z,99445.47
2023-01-09T01:50:56.617Z,99438.48
2023-01-09T01:57:01.502Z,99438.34
2023-01-09T02:02:13.322Z,99457.36
2023-01-09T02:07:16.925Z,99451.58
2023-01-09T02:13:03.484Z,99454.18
2023-01-09T02:18:56.833Z,99445.70
2023-01-09T02:25:09.117Z,99431.33
2023-01-09T02:30:47.379Z,99428.94
2023-01-09T02:36:32.601Z,99415.77
2023-01-09T02:42:51.903Z,99414.94
2023-01-09T02:48:22.429Z,99424.05
2023-01-09T02:53:56.099Z,99426.27
2023-01-09T02:59:37.706Z,99416.89
2023-01-09T03:05:31.776Z,99410.83
2023-01-09T03:11:27.673Z,99399.25
2023-01-09T03:16:40.810Z,99394.42
2023-01-09T03:21:48.354Z,99390.58
2023-01-09T03:26:55.634Z,99385.91
2023-01-09T03:32:13.366Z,99374.58
2023-01-09T03:37:21.671Z,99364.49
2023-01-09T03:42:51.301Z,99355.05
2023-01-09T03:48:30.096Z,99340.19
2023-01-09T03:54:05.036Z,99330.03
2023-01-09T03:59:31.475Z,99328.49
2023-01-09T04:05:01.368Z,99324.77
2023-01-09T04:10:50.419Z,99327.12
2023-01-09T04:16:25.585Z,99322.70
2023-01-09T04:22:25.423Z,99319.39
2023-01-09T04:28:07.826Z,99329.52
2023-01-09T04:33:51.714Z,99324.76
2023-01-09T04:40:08.741Z,99331.61
2023-01-09T04:45:17.261Z,99329.33
2023-01-09T04:56:45.042Z,99319.13
2023-01-09T05:08:56.741Z,99300.27
2023-01-09T05:14:22.806Z,99301.52
2023-01-09T05:19:28.838Z,99298.31
2023-01-09T05:24:32.343Z,99292.73
2023-01-09T05:29:35.581Z,99287.70
2023-01-09T05:34:38.923Z,99274.27
2023-01-09T05:39:51.520Z,99271.30
2023-01-09T05:45:14.834Z,99272.96
2023-01-09T05:50:28.847Z,99265.23
2023-01-09T05:55:48.423Z,99268.08
2023-01-09T06:01:35.285Z,99266.34
2023-01-09T06:07:01.493Z,99258.46
2023-01-09T06:12:07.577Z,99253.25
2023-01-09T06:17:12.038Z,99253.84
2023-01-09T06:22:15.479Z,99251.11
2023-01-09T06:27:42.052Z,99251.72
2023-01-09T06:32:54.049Z,99260.88
2023-01-09T06:38:03.171Z,99256.23
2023-01-09T06:43:06.943Z,99253.69
2023-01-09T06:48:14.040Z,99246.66
2023-01-09T06:54:12.751Z,99244.89
2023-01-09T06:59:24.655Z,99234.22
2023-01-09T07:04:33.717Z,99225.73
2023-01-09T07:10:09.410Z,99225.95
2023-01-09T07:15:18.566Z,99225.38
2023-01-09T07:21:02.520Z,99230.61
2023-01-09T07:26:32.083Z,99229.15
2023-01-09T07:31:37.841Z,99230.71
2023-01-09T07:36:52.781Z,99229.92
2023-01-09T07:42:22.517Z,99225.59
2023-01-09T07:47:42.554Z,99219.08
2023-01-09T07:52:51.060Z,99209.89
2023-01-09T07:58:53.893Z,99207.30
2023-01-09T08:04:37.661Z,99208.22
2023-01-09T08:09:45.773Z,99201.27
2023-01-09T08:14:52.175Z,99203.87
2023-01-09T08:20:11.302Z,99203.94
2023-01-09T08:25:14.830Z,99200.60
2023-01-09T08:30:18.865Z,99196.32
2023-01-09T08:35:47.854Z,99196.11
2023-01-09T08:41:20.149Z,99191.48
2023-01-09T08:47:17.990Z,99178.79
2023-01-09T08:52:51.937Z,99196.91
2023-01-09T08:58:25.726Z,99198.73
2023-01-09T09:03:44.762Z,99195.55
2023-01-09T09:08:56.513Z,99179.09
2023-01-09T09:14:00.535Z,99180.04
2023-01-09T09:19:04.267Z,99166.40
2023-01-09T09:24:33.095Z,99160.73
2023-01-09T09:29:39.857Z,99158.27
2023-01-09T09:35:03.659Z,99159.64
2023-01-09T09:40:44.360Z,99168.64
2023-01-09T09:46:27.741Z,99159.65
2023-01-09T09:51:48.444Z,99157.20
2023-01-09T09:57:26.089Z,99134.25
2023-01-09T10:02:56.300Z,99134.02
2023-01-09T10:08:15.825Z,99128.79
2023-01-09T10:13:41.566Z,99130.38
2023-01-09T10:19:22.615Z,99136.55
2023-01-09T10:24:42.258Z,99128.80
2023-01-09T10:30:12.264Z,99132.66
2023-01-09T10:35:47.430Z,99129.25
2023-01-09T10:41:13.372Z,99109.54
2023-01-09T10:46:49.292Z,99098.44
2023-01-09T10:51:57.902Z,99093.24
2023-01-09T10:57:22.796Z,99088.05
2023-01-09T11:02:35.441Z,99080.89
2023-01-09T11:07:58.874Z,99068.64
2023-01-09T11:13:24.507Z,99064.67
2023-01-09T11:18:32.118Z,99057.36
2023-01-09T11:23:38.161Z,99054.52
2023-01-09T11:28:41.849Z,99051.71
2023-01-09T11:34:06.811Z,99040.73
2023-01-09T11:39:25.377Z,99034.95
2023-01-09T11:44:39.257Z,99025.30
2023-01-09T11:51:01.085Z,99024.77
2023-01-09T11:56:39.777Z,99018.42
2023-01-09T12:02:24.625Z,99011.96
2023-01-09T12:08:24.417Z,98998.02
2023-01-09T12:14:27.024Z,98989.91
2023-01-09T12:20:36.253Z,98997.41
2023-01-09T12:26:44.911Z,98988.41
2023-01-09T12:32:23.798Z,98982.03
2023-01-09T12:38:22.456Z,98989.60
2023-01-09T12:43:49.966Z,98993.55
2023-01-09T12:49:20.589Z,98994.86
2023-01-09T12:54:55.308Z,98988.40
2023-01-09T13:00:48.137Z,98983.75
2023-01-09T13:06:04.726Z,98968.27
2023-01-09T13:19:25.436Z,98961.56
2023-01-09T13:25:12.499Z,98957.96
2023-01-09T13:30:50.849Z,98956.52
2023-01-09T13:35:57.782Z,98948.88
2023-01-09T13:41:33.023Z,98940.10
2023-01-09T13:46:43.625Z,98935.43
2023-01-09T13:51:50.002Z,98932.86
2023-01-09T13:57:19.063Z,98937.44
2023-01-09T14:03:05.196Z,98945.19
2023-01-09T14:08:22.196Z,98936.45
2023-01-09T14:13:33.449Z,98934.96
2023-01-09T14:18:55.162Z,98932.98
2023-01-09T14:24:41.029Z,98929.64
2023-01-09T14:29:45.374Z,98931.90
2023-01-09T14:35:08.841Z,98935.47
2023-01-09T14:40:21.746Z,98939.46
2023-01-09T14:46:05.730Z,98951.23
2023-01-09T14:51:44.584Z,98958.74
2023-01-09T14:56:48.360Z,98968.04
2023-01-09T15:02:32.323Z,98965.64
2023-01-09T15:07:58.572Z,98959.98
2023-01-09T15:13:43.428Z,98959.75
2023-01-09T15:19:00.583Z,98964.34
2023-01-09T15:24:27.192Z,98964.50
2023-01-09T15:29:46.851Z,98976.70
2023-01-09T15:34:50.918Z,98973.31
2023-01-09T15:39:56.458Z,98981.05
2023-01-09T15:45:05.430Z,98989.02
2023-01-09T15:50:21.732Z,98986.73
2023-01-09T15:56:22.063Z,98985.64
2023-01-09T16:01:41.889Z,98982.90
2023-01-09T16:06:56.635Z,98983.95
2023-01-09T16:12:43.732Z,98984.58
2023-01-09T16:18:38.835Z,98983.37
2023-01-09T16:23:53.254Z,98991.83
2023-01-09T16:28:57.308Z,98989.16
2023-01-09T16:34:06.583Z,98992.50
2023-01-09T16:39:19.087Z,99002.47
2023-01-09T16:44:42.828Z,99012.39
2023-01-09T16:50:15.728Z,99014.88
2023-01-09T16:55:21.738Z,99020.45
2023-01-09T17:01:04.088Z,99015.98
2023-01-09T17:13:33.779Z,99029.56
2023-01-09T17:19:20.229Z,99039.23
2023-01-09T17:25:29.859Z,99036.66
2023-01-09T17:31:15.166Z,99044.33
2023-01-09T17:37:05.804Z,99045.92
2023-01-09T17:42:33.438Z,99053.91
2023-01-09T17:47:42.205Z,99043.34
2023-01-09T17:53:07.562Z,99053.50
2023-01-09T17:58:32.558Z,99060.39
2023-01-09T18:03:47.058Z,99066.20
2023-01-09T18:15:32.328Z,99066.19
2023-01-09T18:33:59.668Z,99086.45
2023-01-09T18:39:43.603Z,99096.23
2023-01-09T18:45:57.713Z,99095.67
2023-01-09T18:52:00.439Z,99091.08
2023-01-09T18:57:30.355Z,99104.38
2023-01-09T19:02:37.693Z,99111.98
2023-01-09T19:08:01.540Z,99116.67
2023-01-09T19:13:05.004Z,99121.00
2023-01-09T19:18:08.710Z,99126.05
2023-01-09T19:23:12.262Z,99132.27
2023-01-09T19:28:19.208Z,99131.98
2023-01-09T19:33:25.513Z,99146.25
2023-01-09T19:38:29.146Z,99139.91
2023-01-09T19:44:04.373Z,99148.45
2023-01-09T19:49:10.768Z,99155.06
2023-01-09T19:54:16.931Z,99156.65
2023-01-09T20:04:57.797Z,99168.94
2023-01-09T20:10:01.696Z,99177.89
2023-01-09T20:15:14.891Z,99183.80
2023-01-09T20:20:27.305Z,99188.79
2023-01-09T20:25:30.757Z,99194.39
2023-01-09T20:30:53.727Z,99196.42
2023-01-09T20:36:17.416Z,99196.75
2023-01-09T20:42:01.662Z,99213.19
2023-01-09T20:47:08.390Z,99221.52
2023-01-09T20:52:11.999Z,99222.39
2023-01-09T20:57:17.693Z,99239.59
2023-01-09T21:02:24.156Z,99246.44
2023-01-09T21:08:08.598Z,99255.23
2023-01-09T21:13:32.937Z,99250.36
2023-01-09T21:18:36.888Z,99262.46
2023-01-09T21:24:19.287Z,99279.75
2023-01-09T21:29:38.451Z,99300.03
2023-01-09T21:34:42.133Z,99299.06
2023-01-09T21:40:39.308Z,99300.09
2023-01-09T21:46:18.200Z,99316.23
2023-01-09T21:51:41.979Z,99324.33
2023-01-09T21:56:57.525Z,99323.86
2023-01-09T22:02:41.694Z,99345.16
2023-01-09T22:08:06.775Z,99358.17
2023-01-09T22:13:22.643Z,99362.64
2023-01-09T22:18:29.052Z,99374.46
2023-01-09T22:23:45.401Z,99374.42
2023-01-09T22:28:51.822Z,99370.98
2023-01-09T22:34:00.132Z,99363.24
2023-01-09T22:39:15.089Z,99374.66
2023-01-09T22:44:19.274Z,99375.43
2023-01-09T22:49:53.798Z,99378.08
2023-01-09T22:55:11.541Z,99382.64
2023-01-09T23:00:18.442Z,99371.08
2023-01-09T23:05:24.095Z,99369.12
2023-01-09T23:10:37.938Z,99383.83
2023-01-09T23:16:04.626Z,99388.39
2023-01-09T23:21:33.387Z,99389.39
2023-01-09T23:26:58.134Z,99397.86
2023-01-09T23:32:14.361Z,99402.06
2023-01-09T23:37:58.191Z,99400.16
2023-01-09T23:43:30.586Z,99409.17
2023-01-09T23:49:07.404Z,99421.46
2023-01-09T23:54:17.541Z,99427.84
2023-01-09T23:59:21.149Z,99433.88
